Time;durP1;ratioP1;P1;durP2;ratioP2;P2;SDS_P1;SDS_P2;PMS_P1;PMS_P2;Temp;Humidity;BMP_temperature;BMP_pressure;BME280_temperature;BME280_humidity;BME280_pressure;Samples;Min_cycle;Max_cycle;Signal;HPM_P1;HPM_P2
2022/08/12 00:44:04;;;;;;;10.68;5.88;;;;;;;;;;5054692;28;20558;-77
2022/08/12 00:46:35;;;;;;;8.00;6.10;;;;;;;;;;5083083;28;20170;-76
2022/08/12 00:49:00;;;;;;;;;;;;;;;;;;5071699;28;20438;-77
2022/08/12 00:52:10;;;;;;;10.68;5.85;;;;;;;;;;5084604;28;19904;-77
2022/08/12 00:54:17;;;;;;;7.83;6.10;;;;;;;;;;5051687;28;20497;-77
2022/08/12 00:56:47;;;;;;;7.43;5.78;;;;;;;;;;5049947;28;20166;-77
2022/08/12 00:59:12;;;;;;;7.53;5.70;;;;;;;;;;5051766;28;20029;-77
2022/08/12 01:01:42;;;;;;;9.60;5.93;;;;;;;;;;5071982;28;20051;-77
2022/08/12 01:12:24;;;;;;;11.85;6.20;;;;;;;;;;5054444;28;20033;-77
2022/08/12 01:14:52;;;;;;;11.70;6.55;;;;;;;;;;5049383;28;20508;-77
2022/08/12 01:17:18;;;;;;;12.55;6.45;;;;;;;;;;5054758;28;20029;-76
2022/08/12 01:19:46;;;;;;;9.88;6.35;;;;;;;;;;5056399;28;20025;-77
2022/08/12 01:22:17;;;;;;;9.85;6.25;;;;;;;;;;5059241;28;20035;-77
2022/08/12 01:24:42;;;;;;;10.20;6.72;;;;;;;;;;5061523;28;20067;-77
2022/08/12 01:27:09;;;;;;;8.68;6.22;;;;;;;;;;5051889;28;20453;-77
2022/08/12 01:29:38;;;;;;;9.85;6.53;;;;;;;;;;5057567;28;20045;-77
2022/08/12 01:32:07;;;;;;;10.23;6.53;;;;;;;;;;5056486;28;20032;-76
2022/08/12 01:34:37;;;;;;;9.88;6.47;;;;;;;;;;5057188;28;20566;-76
2022/08/12 01:37:03;;;;;;;8.05;6.38;;;;;;;;;;5055612;28;20435;-76
2022/08/12 01:39:30;;;;;;;9.70;6.60;;;;;;;;;;5054863;28;20659;-76
2022/08/12 01:42:01;;;;;;;8.85;6.30;;;;;;;;;;5050989;28;20044;-76
2022/08/12 01:44:27;;;;;;;8.73;5.95;;;;;;;;;;5048996;28;20033;-76
2022/08/12 01:47:11;;;;;;;10.25;6.72;;;;;;;;;;5069533;28;20179;-76
2022/08/12 01:49:59;;;;;;;9.60;6.65;;;;;;;;;;5070431;28;20032;-77
2022/08/12 01:52:32;;;;;;;12.75;7.10;;;;;;;;;;5062883;28;20040;-76
2022/08/12 01:54:58;;;;;;;12.38;6.75;;;;;;;;;;5048381;28;20036;-76
2022/08/12 01:57:38;;;;;;;10.02;7.15;;;;;;;;;;5066914;28;20107;-77
2022/08/12 02:00:11;;;;;;;11.18;7.10;;;;;;;;;;5070594;28;20131;-77
2022/08/12 02:02:42;;;;;;;9.55;7.05;;;;;;;;;;5063859;28;20079;-79
2022/08/12 02:11:21;;;;;;;12.95;7.85;;;;;;;;;;5055653;28;20052;-75
2022/08/12 02:13:46;;;;;;;9.95;7.93;;;;;;;;;;5060383;28;20033;-76
2022/08/12 02:16:15;;;;;;;10.90;7.57;;;;;;;;;;5055081;28;20040;-77
2022/08/12 02:18:59;;;;;;;11.52;7.93;;;;;;;;;;5059438;28;20043;-76
2022/08/12 02:21:38;;;;;;;11.65;7.70;;;;;;;;;;5058334;28;20397;-76
2022/08/12 02:24:03;;;;;;;10.63;7.60;;;;;;;;;;5060070;28;20453;-78
2022/08/12 02:26:31;;;;;;;10.18;7.68;;;;;;;;;;5081552;28;20501;-79
2022/08/12 02:29:00;;;;;;;11.55;7.82;;;;;;;;;;5052929;28;20037;-75
2022/08/12 02:31:26;;;;;;;9.30;7.65;;;;;;;;;;5077998;28;20587;-76
2022/08/12 02:33:51;;;;;;;11.18;7.90;;;;;;;;;;5064478;28;20044;-76
2022/08/12 02:36:17;;;;;;;10.05;7.35;;;;;;;;;;5062102;28;20020;-76
2022/08/12 02:38:42;;;;;;;10.50;7.95;;;;;;;;;;5058075;28;20036;-77
2022/08/12 02:41:10;;;;;;;11.68;7.80;;;;;;;;;;5061817;28;20041;-75
2022/08/12 02:43:40;;;;;;;9.55;7.70;;;;;;;;;;5058192;28;20025;-75
2022/08/12 02:46:07;;;;;;;9.40;7.95;;;;;;;;;;5057425;28;20059;-76
2022/08/12 02:48:52;;;;;;;11.98;8.07;;;;;;;;;;5056937;28;20112;-76
2022/08/12 02:51:19;;;;;;;11.85;8.20;;;;;;;;;;5056227;28;20031;-76
2022/08/12 02:53:45;;;;;;;14.13;8.35;;;;;;;;;;5074071;28;20033;-76
2022/08/12 02:56:13;;;;;;;12.52;8.18;;;;;;;;;;5078900;27;20030;-75
2022/08/12 02:58:39;;;;;;;12.65;8.27;;;;;;;;;;5057120;28;20120;-77
2022/08/12 03:01:09;;;;;;;10.25;8.20;;;;;;;;;;5052348;28;20405;-76
2022/08/12 03:03:35;;;;;;;12.65;8.02;;;;;;;;;;5058543;28;20032;-77
2022/08/12 03:06:06;;;;;;;11.48;8.38;;;;;;;;;;5068744;28;20036;-76
2022/08/12 03:08:42;;;;;;;12.20;8.10;;;;;;;;;;5061755;28;20289;-75
2022/08/12 03:11:46;;;;;;;9.98;8.20;;;;;;;;;;5062292;28;20032;-76
2022/08/12 03:14:14;;;;;;;10.50;8.60;;;;;;;;;;4983851;28;20390;-76
2022/08/12 03:16:42;;;;;;;12.90;8.77;;;;;;;;;;5025091;28;20125;-76
2022/08/12 03:19:09;;;;;;;12.30;9.10;;;;;;;;;;5043997;28;20741;-77
2022/08/12 03:21:37;;;;;;;11.80;8.65;;;;;;;;;;5063206;28;20039;-76
2022/08/12 03:24:22;;;;;;;13.50;8.52;;;;;;;;;;5032089;28;20178;-76
2022/08/12 03:26:50;;;;;;;13.65;9.50;;;;;;;;;;5028723;28;20498;-76
2022/08/12 03:29:17;;;;;;;11.15;9.00;;;;;;;;;;5033177;28;20029;-75
2022/08/12 03:31:43;;;;;;;11.02;9.18;;;;;;;;;;5026030;28;20087;-76
2022/08/12 03:34:11;;;;;;;10.90;9.55;;;;;;;;;;5017934;28;20037;-77
2022/08/12 03:36:38;;;;;;;13.82;9.75;;;;;;;;;;5024372;28;20037;-76
2022/08/12 03:41:53;;;;;;;13.52;9.93;;;;;;;;;;5028126;28;20346;-76
2022/08/12 04:00:57;;;;;;;12.85;10.73;;;;;;;;;;5023126;28;1187269;-76
2022/08/12 04:06:07;;;;;;;15.88;11.27;;;;;;;;;;5066975;28;20481;-75
2022/08/12 04:08:33;;;;;;;13.88;11.57;;;;;;;;;;5069537;28;20051;-75
2022/08/12 04:13:42;;;;;;;15.68;11.48;;;;;;;;;;5068389;28;20047;-76
2022/08/12 04:16:09;;;;;;;16.10;11.82;;;;;;;;;;5065217;28;20033;-75
2022/08/12 04:18:34;;;;;;;16.65;11.70;;;;;;;;;;5065601;28;20033;-77
2022/08/12 04:21:03;;;;;;;14.38;12.38;;;;;;;;;;5058722;28;20025;-77
2022/08/12 04:23:29;;;;;;;16.92;12.82;;;;;;;;;;5055360;28;20474;-77
2022/08/12 04:25:55;;;;;;;17.55;12.68;;;;;;;;;;5061465;28;20387;-76
2022/08/12 04:28:24;;;;;;;15.70;12.85;;;;;;;;;;5067206;28;20122;-77
2022/08/12 04:30:50;;;;;;;15.27;12.43;;;;;;;;;;5072667;28;20028;-77
2022/08/12 04:33:17;;;;;;;16.83;13.02;;;;;;;;;;5058056;28;20064;-77
2022/08/12 04:35:46;;;;;;;16.98;12.75;;;;;;;;;;5069944;28;20039;-78
2022/08/12 04:38:11;;;;;;;19.52;13.63;;;;;;;;;;5059860;28;20102;-78
2022/08/12 04:40:38;;;;;;;17.42;12.88;;;;;;;;;;5062035;28;20470;-77
2022/08/12 04:43:03;;;;;;;17.70;13.70;;;;;;;;;;5053939;28;20116;-76
2022/08/12 04:45:30;;;;;;;18.20;13.25;;;;;;;;;;5059748;28;20150;-78
2022/08/12 04:47:55;;;;;;;18.92;13.32;;;;;;;;;;5069583;28;20093;-77
2022/08/12 04:50:21;;;;;;;17.90;13.02;;;;;;;;;;5072714;28;20037;-76
2022/08/12 04:52:49;;;;;;;18.98;12.55;;;;;;;;;;5091158;28;20097;-76
2022/08/12 04:55:15;;;;;;;18.83;12.70;;;;;;;;;;5094096;28;20028;-76
2022/08/12 04:57:43;;;;;;;16.15;12.95;;;;;;;;;;5050440;28;20422;-75
2022/08/12 05:00:11;;;;;;;17.35;12.02;;;;;;;;;;5092212;28;20059;-76
2022/08/12 05:02:37;;;;;;;17.88;11.38;;;;;;;;;;5072209;28;20032;-76
2022/08/12 05:05:02;;;;;;;19.80;13.30;;;;;;;;;;5068310;28;20032;-77
2022/08/12 05:07:28;;;;;;;15.90;12.50;;;;;;;;;;5064619;28;20036;-75
2022/08/12 05:09:54;;;;;;;16.60;12.63;;;;;;;;;;5057403;28;20040;-76
2022/08/12 05:12:22;;;;;;;15.68;12.77;;;;;;;;;;5070913;28;20511;-77
2022/08/12 05:14:49;;;;;;;17.33;12.60;;;;;;;;;;5067932;28;20033;-76
2022/08/12 05:17:14;;;;;;;15.88;12.80;;;;;;;;;;5069839;28;20028;-76
2022/08/12 05:19:40;;;;;;;17.20;12.77;;;;;;;;;;5075760;28;20028;-77
2022/08/12 05:22:05;;;;;;;13.30;11.63;;;;;;;;;;5073729;28;20036;-76
2022/08/12 05:24:31;;;;;;;14.80;12.13;;;;;;;;;;5066832;28;20167;-75
2022/08/12 05:26:56;;;;;;;16.45;12.73;;;;;;;;;;5062480;28;20405;-77
2022/08/12 05:29:22;;;;;;;15.27;12.20;;;;;;;;;;5077520;28;20035;-76
2022/08/12 05:31:48;;;;;;;18.58;12.57;;;;;;;;;;5079804;28;20029;-77
2022/08/12 05:34:14;;;;;;;14.85;12.15;;;;;;;;;;5074450;28;20098;-74
2022/08/12 05:36:43;;;;;;;14.68;12.15;;;;;;;;;;5083098;28;20411;-75
2022/08/12 05:39:10;;;;;;;16.53;11.93;;;;;;;;;;5085166;28;20040;-76
2022/08/12 05:41:38;;;;;;;16.17;11.23;;;;;;;;;;5082673;28;20272;-75
2022/08/12 05:44:08;;;;;;;14.30;11.75;;;;;;;;;;5081324;28;20024;-77
2022/08/12 05:46:35;;;;;;;17.17;13.00;;;;;;;;;;5061740;28;20056;-76
2022/08/12 05:49:03;;;;;;;14.93;11.02;;;;;;;;;;5071953;28;20493;-75
2022/08/12 05:51:31;;;;;;;16.35;12.07;;;;;;;;;;5063560;28;20032;-76
2022/08/12 05:53:57;;;;;;;14.02;11.18;;;;;;;;;;5062380;28;20072;-76
2022/08/12 05:56:24;;;;;;;16.25;11.45;;;;;;;;;;5066684;28;20033;-75
2022/08/12 05:58:50;;;;;;;15.50;12.00;;;;;;;;;;5066253;28;20033;-76
2022/08/12 06:01:18;;;;;;;16.52;11.80;;;;;;;;;;5061818;28;20036;-77
2022/08/12 06:03:44;;;;;;;13.55;10.63;;;;;;;;;;5073985;28;20038;-77
2022/08/12 06:06:10;;;;;;;13.45;10.65;;;;;;;;;;5059224;28;20029;-76
2022/08/12 06:08:39;;;;;;;13.05;10.75;;;;;;;;;;5063250;28;20034;-76
2022/08/12 06:11:05;;;;;;;15.27;10.75;;;;;;;;;;5060822;28;20543;-76
2022/08/12 06:13:33;;;;;;;14.98;10.07;;;;;;;;;;5045780;28;20033;-76
2022/08/12 06:16:01;;;;;;;11.90;9.70;;;;;;;;;;5055308;28;20032;-76
2022/08/12 06:18:28;;;;;;;12.93;10.18;;;;;;;;;;5059149;28;20020;-75
2022/08/12 06:20:57;;;;;;;13.48;9.50;;;;;;;;;;5061632;28;20037;-77
2022/08/12 06:23:27;;;;;;;10.45;8.75;;;;;;;;;;5073525;28;20129;-76
2022/08/12 06:25:53;;;;;;;10.98;8.73;;;;;;;;;;5064885;28;20060;-76
2022/08/12 06:28:20;;;;;;;14.13;8.55;;;;;;;;;;5062140;28;20125;-76
2022/08/12 06:30:47;;;;;;;10.55;8.00;;;;;;;;;;5059663;28;20424;-76
2022/08/12 06:33:13;;;;;;;10.98;7.90;;;;;;;;;;5060809;28;20032;-76
2022/08/12 06:35:40;;;;;;;15.30;8.23;;;;;;;;;;5060048;28;20044;-76
2022/08/12 06:38:12;;;;;;;11.70;8.38;;;;;;;;;;5053927;28;20488;-76
2022/08/12 06:43:21;;;;;;;11.20;7.70;;;;;;;;;;5065531;28;20044;-75
2022/08/12 06:45:48;;;;;;;10.98;6.85;;;;;;;;;;5052961;28;20397;-75
2022/08/12 06:48:13;;;;;;;9.68;6.30;;;;;;;;;;5068342;28;20064;-75
2022/08/12 06:50:41;;;;;;;13.27;6.50;;;;;;;;;;5059795;28;20116;-75
2022/08/12 06:53:08;;;;;;;8.98;5.90;;;;;;;;;;5046080;28;20036;-75
2022/08/12 06:55:35;;;;;;;9.60;5.80;;;;;;;;;;5049828;28;20067;-75
2022/08/12 06:58:02;;;;;;;9.63;5.38;;;;;;;;;;5048864;28;20032;-75
2022/08/12 07:00:29;;;;;;;7.35;4.80;;;;;;;;;;5040251;28;20037;-74
2022/08/12 07:02:55;;;;;;;10.27;5.93;;;;;;;;;;5034964;28;20179;-73
2022/08/12 07:05:23;;;;;;;9.88;5.25;;;;;;;;;;5035710;28;20048;-74
2022/08/12 07:07:52;;;;;;;9.82;5.15;;;;;;;;;;5035081;28;20044;-73
2022/08/12 07:10:24;;;;;;;7.03;4.53;;;;;;;;;;5037318;28;20031;-73
2022/08/12 07:12:55;;;;;;;9.73;4.45;;;;;;;;;;5056507;28;20402;-74
2022/08/12 07:15:23;;;;;;;8.18;4.68;;;;;;;;;;5035089;28;20511;-74
2022/08/12 07:17:58;;;;;;;8.13;4.40;;;;;;;;;;5042699;28;20029;-74
2022/08/12 07:20:28;;;;;;;9.35;4.63;;;;;;;;;;5039630;28;20563;-76
2022/08/12 07:22:53;;;;;;;6.85;4.38;;;;;;;;;;5074097;27;20450;-74
2022/08/12 07:25:31;;;;;;;8.88;4.30;;;;;;;;;;5046560;28;20021;-75
2022/08/12 07:28:08;;;;;;;6.78;4.28;;;;;;;;;;5043639;28;20743;-75
2022/08/12 07:30:35;;;;;;;7.50;4.60;;;;;;;;;;5054048;28;20462;-75
2022/08/12 07:33:03;;;;;;;9.77;4.32;;;;;;;;;;5041778;28;20036;-74
2022/08/12 07:35:29;;;;;;;4.50;4.03;;;;;;;;;;5043817;28;20375;-75
2022/08/12 07:37:56;;;;;;;10.30;4.53;;;;;;;;;;5041915;28;20253;-75
2022/08/12 07:40:24;;;;;;;9.77;4.47;;;;;;;;;;5027246;28;20281;-74
2022/08/12 07:42:49;;;;;;;8.00;4.90;;;;;;;;;;5042730;28;20033;-74
2022/08/12 07:45:15;;;;;;;8.45;4.25;;;;;;;;;;5039141;28;20444;-74
2022/08/12 07:47:43;;;;;;;7.07;4.80;;;;;;;;;;5040214;28;20779;-75
2022/08/12 07:50:12;;;;;;;7.47;4.35;;;;;;;;;;5034263;28;20211;-73
2022/08/12 07:52:40;;;;;;;7.32;4.18;;;;;;;;;;5037585;28;20071;-74
2022/08/12 07:55:06;;;;;;;7.97;4.35;;;;;;;;;;5032552;28;20048;-74
2022/08/12 07:57:31;;;;;;;7.40;4.32;;;;;;;;;;5051589;28;20682;-74
2022/08/12 08:00:04;;;;;;;6.50;4.18;;;;;;;;;;5043098;28;20453;-75
2022/08/12 08:02:32;;;;;;;6.43;3.88;;;;;;;;;;5037621;28;20071;-74
2022/08/12 08:04:59;;;;;;;5.93;3.65;;;;;;;;;;5040060;28;20324;-75
2022/08/12 08:07:26;;;;;;;6.20;4.25;;;;;;;;;;5055464;28;20056;-74
2022/08/12 08:09:56;;;;;;;7.50;3.60;;;;;;;;;;5041694;28;21865;-74
2022/08/12 08:15:13;;;;;;;12.52;3.55;;;;;;;;;;5044973;28;20060;-75
2022/08/12 08:17:39;;;;;;;8.00;3.53;;;;;;;;;;5032985;28;20117;-75
2022/08/12 08:20:06;;;;;;;7.15;3.15;;;;;;;;;;5032442;28;20036;-75
2022/08/12 08:22:37;;;;;;;6.65;3.17;;;;;;;;;;5030956;28;20040;-75
2022/08/12 08:25:05;;;;;;;7.10;3.40;;;;;;;;;;5030764;28;20143;-75
2022/08/12 08:27:44;;;;;;;8.05;3.40;;;;;;;;;;5035622;28;20063;-76
2022/08/12 08:30:10;;;;;;;6.38;3.30;;;;;;;;;;5041831;28;20120;-74
2022/08/12 08:32:39;;;;;;;8.43;3.28;;;;;;;;;;5042802;28;20075;-79
2022/08/12 08:35:06;;;;;;;9.02;2.80;;;;;;;;;;5043382;28;20426;-73
2022/08/12 08:37:31;;;;;;;5.50;2.80;;;;;;;;;;5031921;28;20426;-73
2022/08/12 08:42:35;;;;;;;9.70;3.00;;;;;;;;;;5034944;28;20036;-73
2022/08/12 08:42:43;;;;;;;4.57;3.20;;;;;;;;;;5040980;28;20571;-73
2022/08/12 08:45:11;;;;;;;4.45;3.10;;;;;;;;;;5039294;28;20083;-73
2022/08/12 08:47:44;;;;;;;6.43;2.50;;;;;;;;;;5036689;28;20043;-73
2022/08/12 08:50:09;;;;;;;5.50;2.25;;;;;;;;;;5038344;28;20152;-74
2022/08/12 08:52:36;;;;;;;4.78;2.63;;;;;;;;;;5026681;28;20041;-73
2022/08/12 08:55:02;;;;;;;6.05;3.20;;;;;;;;;;5034413;28;20063;-73
2022/08/12 08:57:27;;;;;;;7.00;2.88;;;;;;;;;;5032672;28;20473;-73
2022/08/12 08:59:53;;;;;;;5.40;2.75;;;;;;;;;;5034077;28;20244;-73
2022/08/12 09:02:18;;;;;;;6.75;2.65;;;;;;;;;;5054233;28;20084;-73
2022/08/12 09:04:44;;;;;;;8.93;3.00;;;;;;;;;;5048631;28;20032;-73
2022/08/12 09:07:11;;;;;;;5.35;2.42;;;;;;;;;;5052631;28;20075;-74
2022/08/12 09:09:36;;;;;;;3.47;2.10;;;;;;;;;;5052302;28;20028;-73
2022/08/12 09:14:48;;;;;;;6.05;2.55;;;;;;;;;;5044219;28;20086;-74
2022/08/12 09:17:13;;;;;;;6.97;2.40;;;;;;;;;;5052685;28;20174;-76
2022/08/12 09:19:39;;;;;;;5.45;2.30;;;;;;;;;;5024101;28;20040;-73
2022/08/12 09:22:07;;;;;;;5.25;2.40;;;;;;;;;;5044858;28;20448;-72
2022/08/12 09:24:36;;;;;;;7.03;2.22;;;;;;;;;;5048317;28;20479;-75
2022/08/12 09:27:05;;;;;;;5.47;2.45;;;;;;;;;;5060966;28;20051;-75
2022/08/12 09:29:32;;;;;;;8.77;2.50;;;;;;;;;;5022577;28;21082;-76
2022/08/12 09:31:57;;;;;;;7.57;2.50;;;;;;;;;;5026819;28;20233;-75
2022/08/12 09:34:24;;;;;;;6.53;2.08;;;;;;;;;;5036838;28;20029;-75
2022/08/12 09:36:49;;;;;;;5.78;2.03;;;;;;;;;;5026798;28;20090;-79
2022/08/12 09:39:14;;;;;;;5.00;2.25;;;;;;;;;;5025629;28;20037;-78
2022/08/12 09:41:41;;;;;;;6.32;2.47;;;;;;;;;;5020927;28;20545;-77
2022/08/12 09:46:51;;;;;;;7.65;2.20;;;;;;;;;;5019514;28;20037;-75
2022/08/12 09:49:18;;;;;;;6.43;2.28;;;;;;;;;;5042927;28;20560;-73
2022/08/12 09:51:46;;;;;;;6.70;2.30;;;;;;;;;;5030922;28;20041;-72
2022/08/12 09:54:11;;;;;;;6.30;2.03;;;;;;;;;;5024490;28;20332;-73
2022/08/12 09:56:40;;;;;;;5.18;2.15;;;;;;;;;;5023406;28;20028;-73
2022/08/12 09:59:07;;;;;;;3.83;2.10;;;;;;;;;;5019894;28;20875;-74
2022/08/12 10:01:32;;;;;;;5.85;2.10;;;;;;;;;;5037237;28;20048;-70
2022/08/12 10:04:00;;;;;;;6.18;2.40;;;;;;;;;;5024902;28;20453;-72
2022/08/12 10:06:28;;;;;;;5.90;2.47;;;;;;;;;;5025524;28;20090;-76
2022/08/12 10:08:54;;;;;;;5.53;2.47;;;;;;;;;;5026004;28;20033;-73
2022/08/12 10:14:05;;;;;;;5.68;2.10;;;;;;;;;;5024710;28;20363;-78
2022/08/12 10:16:31;;;;;;;4.72;2.42;;;;;;;;;;5029771;28;20361;-74
2022/08/12 10:19:01;;;;;;;7.57;2.45;;;;;;;;;;5024124;28;20389;-76
2022/08/12 10:21:29;;;;;;;7.30;2.35;;;;;;;;;;5027071;28;20271;-74
2022/08/12 10:23:55;;;;;;;5.50;2.30;;;;;;;;;;5018772;28;20595;-74
2022/08/12 10:31:52;;;;;;;6.07;2.10;;;;;;;;;;5020690;28;20640;-75
2022/08/12 10:34:21;;;;;;;7.40;2.85;;;;;;;;;;5022803;28;20028;-72
2022/08/12 10:36:48;;;;;;;12.15;2.60;;;;;;;;;;5023464;28;20156;-74
2022/08/12 10:39:14;;;;;;;6.05;2.45;;;;;;;;;;5020012;28;20066;-74
2022/08/12 10:44:28;;;;;;;4.78;2.50;;;;;;;;;;5020835;28;20620;-73
2022/08/12 10:46:54;;;;;;;4.25;2.38;;;;;;;;;;5034474;28;23091;-74
2022/08/12 10:49:19;;;;;;;7.10;2.55;;;;;;;;;;5020804;28;20090;-73
2022/08/12 10:51:47;;;;;;;6.57;2.40;;;;;;;;;;5017770;28;20115;-73
2022/08/12 10:54:13;;;;;;;13.10;2.75;;;;;;;;;;5022586;28;20037;-73
2022/08/12 10:56:40;;;;;;;4.90;2.20;;;;;;;;;;5020471;28;20804;-74
2022/08/12 10:59:05;;;;;;;6.72;2.05;;;;;;;;;;5011887;28;20826;-74
2022/08/12 11:01:32;;;;;;;8.00;2.42;;;;;;;;;;5008766;28;20040;-75
2022/08/12 11:04:01;;;;;;;5.18;2.30;;;;;;;;;;5020242;28;20067;-74
2022/08/12 11:06:26;;;;;;;8.45;2.55;;;;;;;;;;5013940;28;20029;-73
2022/08/12 11:08:55;;;;;;;4.85;2.10;;;;;;;;;;5020955;28;20083;-74
2022/08/12 11:11:20;;;;;;;6.90;2.25;;;;;;;;;;5036075;28;20076;-74
2022/08/12 11:13:46;;;;;;;8.40;2.45;;;;;;;;;;5019980;28;20195;-74
2022/08/12 11:16:15;;;;;;;6.13;2.47;;;;;;;;;;5024402;28;20090;-74
2022/08/12 11:18:42;;;;;;;4.88;2.20;;;;;;;;;;5013317;28;20254;-74
2022/08/12 11:21:07;;;;;;;6.28;2.20;;;;;;;;;;5019415;28;20036;-74
2022/08/12 11:23:33;;;;;;;4.25;2.10;;;;;;;;;;5020109;28;20036;-74
2022/08/12 11:25:58;;;;;;;4.13;2.00;;;;;;;;;;5024169;28;20075;-74
2022/08/12 11:28:24;;;;;;;5.10;2.20;;;;;;;;;;5019805;28;20044;-74
2022/08/12 11:30:51;;;;;;;7.85;2.42;;;;;;;;;;5018469;28;20033;-74
2022/08/12 11:33:16;;;;;;;5.53;2.17;;;;;;;;;;5018452;28;20173;-74
2022/08/12 11:35:42;;;;;;;5.40;2.40;;;;;;;;;;5021923;28;20041;-74
2022/08/12 11:38:08;;;;;;;5.15;2.20;;;;;;;;;;5021576;28;20684;-73
2022/08/12 11:40:33;;;;;;;4.93;2.03;;;;;;;;;;5019139;28;21680;-74
2022/08/12 11:43:01;;;;;;;7.97;2.45;;;;;;;;;;5012989;28;20044;-73
2022/08/12 11:45:26;;;;;;;4.60;2.25;;;;;;;;;;5020368;28;20776;-74
2022/08/12 11:47:55;;;;;;;6.00;2.00;;;;;;;;;;5019542;28;20179;-73
2022/08/12 11:50:21;;;;;;;5.43;2.03;;;;;;;;;;5020001;28;20036;-74
2022/08/12 11:52:46;;;;;;;3.50;1.80;;;;;;;;;;5021908;28;20536;-75
2022/08/12 11:55:12;;;;;;;6.25;2.35;;;;;;;;;;5020266;28;20122;-74
2022/08/12 11:57:47;;;;;;;10.88;2.13;;;;;;;;;;5033848;28;20147;-74
2022/08/12 12:00:13;;;;;;;7.90;2.08;;;;;;;;;;5019797;28;20611;-74
2022/08/12 12:02:38;;;;;;;7.68;2.13;;;;;;;;;;5017564;28;20040;-75
2022/08/12 12:05:06;;;;;;;5.05;1.90;;;;;;;;;;5032789;28;20070;-74
2022/08/12 12:07:31;;;;;;;4.20;1.83;;;;;;;;;;5032165;28;22127;-74
2022/08/12 12:09:56;;;;;;;6.72;2.10;;;;;;;;;;5018739;28;20205;-75
2022/08/12 12:12:24;;;;;;;7.35;1.80;;;;;;;;;;5020306;28;20736;-75
2022/08/12 12:14:52;;;;;;;8.48;2.10;;;;;;;;;;5018990;28;20052;-75
2022/08/12 12:17:18;;;;;;;5.22;1.85;;;;;;;;;;5029796;28;20271;-75
2022/08/12 12:19:43;;;;;;;8.38;2.00;;;;;;;;;;5004214;28;20040;-74
2022/08/12 12:22:08;;;;;;;7.22;2.00;;;;;;;;;;5020859;28;20546;-75
2022/08/12 12:24:34;;;;;;;4.63;1.70;;;;;;;;;;5016293;28;20118;-75
2022/08/12 12:27:02;;;;;;;5.70;1.95;;;;;;;;;;5034271;28;20111;-74
2022/08/12 12:29:31;;;;;;;5.97;1.98;;;;;;;;;;5016570;28;20148;-76
2022/08/12 12:31:56;;;;;;;7.03;2.08;;;;;;;;;;5017596;28;20040;-75
2022/08/12 12:34:24;;;;;;;5.93;2.15;;;;;;;;;;5018701;28;20029;-75
2022/08/12 12:36:49;;;;;;;5.63;1.73;;;;;;;;;;5033909;28;20115;-75
2022/08/12 12:39:14;;;;;;;9.40;2.33;;;;;;;;;;5021763;28;20118;-75
2022/08/12 12:41:39;;;;;;;4.22;1.95;;;;;;;;;;5018613;28;20657;-76
2022/08/12 12:44:05;;;;;;;4.55;1.77;;;;;;;;;;5018967;28;20033;-76
2022/08/12 12:46:30;;;;;;;6.60;1.70;;;;;;;;;;5015346;28;20036;-76
2022/08/12 12:48:56;;;;;;;5.70;2.03;;;;;;;;;;5016283;28;20037;-76
2022/08/12 12:51:21;;;;;;;4.40;2.03;;;;;;;;;;5029942;28;20064;-73
2022/08/12 12:53:47;;;;;;;6.03;1.80;;;;;;;;;;5029216;28;20171;-75
2022/08/12 12:56:21;;;;;;;3.80;1.75;;;;;;;;;;5029631;28;20143;-74
2022/08/12 12:58:50;;;;;;;4.00;1.85;;;;;;;;;;5013866;28;20464;-76
2022/08/12 13:01:17;;;;;;;5.13;1.90;;;;;;;;;;5018719;28;20072;-75
2022/08/12 13:03:42;;;;;;;6.45;1.88;;;;;;;;;;5018537;28;20033;-74
2022/08/12 13:06:08;;;;;;;7.00;1.83;;;;;;;;;;5030955;28;20032;-74
2022/08/12 13:08:33;;;;;;;4.90;1.80;;;;;;;;;;5015189;28;21813;-74
2022/08/12 13:11:02;;;;;;;6.20;1.50;;;;;;;;;;5017547;28;20150;-73
2022/08/12 13:13:31;;;;;;;5.82;1.80;;;;;;;;;;5017566;28;20028;-75
2022/08/12 13:16:00;;;;;;;4.72;1.80;;;;;;;;;;5016517;28;20501;-74
2022/08/12 13:18:35;;;;;;;3.65;1.55;;;;;;;;;;5017734;28;22056;-73
2022/08/12 13:21:03;;;;;;;5.82;1.90;;;;;;;;;;5016229;28;20410;-76
2022/08/12 13:23:28;;;;;;;5.82;1.70;;;;;;;;;;5035356;28;20532;-76
2022/08/12 13:25:55;;;;;;;4.93;1.83;;;;;;;;;;5015529;28;20122;-76
2022/08/12 13:28:24;;;;;;;4.63;2.00;;;;;;;;;;5007454;28;20037;-76
2022/08/12 13:30:51;;;;;;;4.55;1.95;;;;;;;;;;5015086;28;20462;-77
2022/08/12 13:33:21;;;;;;;7.55;2.00;;;;;;;;;;5029619;28;20162;-76
2022/08/12 13:35:49;;;;;;;6.25;1.92;;;;;;;;;;5016146;28;20406;-77
2022/08/12 13:38:17;;;;;;;7.05;2.03;;;;;;;;;;5017517;28;20114;-77
2022/08/12 13:40:43;;;;;;;9.15;1.98;;;;;;;;;;5015757;28;20037;-75
2022/08/12 13:43:14;;;;;;;5.85;1.90;;;;;;;;;;5001682;28;20032;-75
2022/08/12 13:45:40;;;;;;;4.50;1.90;;;;;;;;;;5016156;28;20033;-74
2022/08/12 13:48:06;;;;;;;8.93;2.10;;;;;;;;;;5019063;28;20048;-75
2022/08/12 13:50:32;;;;;;;5.53;2.25;;;;;;;;;;5013350;28;20052;-74
2022/08/12 13:53:00;;;;;;;3.97;2.13;;;;;;;;;;5017541;28;20626;-74
2022/08/12 13:55:27;;;;;;;7.68;2.10;;;;;;;;;;5013704;28;20615;-76
2022/08/12 13:57:53;;;;;;;5.68;1.90;;;;;;;;;;5021111;28;20123;-75
2022/08/12 14:00:19;;;;;;;5.93;2.08;;;;;;;;;;5018558;28;20708;-76
2022/08/12 14:02:44;;;;;;;6.35;1.90;;;;;;;;;;5031894;28;20060;-76
2022/08/12 14:05:10;;;;;;;3.70;1.90;;;;;;;;;;5016525;28;20052;-75
2022/08/12 14:07:53;;;;;;;4.75;1.92;;;;;;;;;;5018380;28;20044;-76
2022/08/12 14:10:37;;;;;;;5.60;1.90;;;;;;;;;;5022538;28;20211;-75
2022/08/12 14:13:04;;;;;;;6.35;1.98;;;;;;;;;;5019345;28;20568;-76
2022/08/12 14:15:36;;;;;;;5.10;1.80;;;;;;;;;;5018653;28;20047;-77
2022/08/12 14:18:09;;;;;;;7.72;1.90;;;;;;;;;;5018502;28;20553;-74
2022/08/12 14:20:37;;;;;;;4.95;1.92;;;;;;;;;;5018280;28;20141;-77
2022/08/12 14:23:05;;;;;;;4.55;1.83;;;;;;;;;;5017933;28;20054;-75
2022/08/12 14:25:30;;;;;;;5.68;1.85;;;;;;;;;;5020124;28;20361;-74
2022/08/12 14:28:10;;;;;;;3.40;1.70;;;;;;;;;;5024181;28;20106;-74
2022/08/12 14:30:35;;;;;;;4.90;1.92;;;;;;;;;;5022222;28;20537;-74
2022/08/12 14:33:02;;;;;;;4.57;1.70;;;;;;;;;;5021041;28;20727;-76
2022/08/12 14:35:27;;;;;;;6.38;1.77;;;;;;;;;;5022070;28;20033;-76
2022/08/12 14:37:52;;;;;;;8.63;1.85;;;;;;;;;;5022650;28;20323;-76
2022/08/12 14:40:18;;;;;;;6.93;1.88;;;;;;;;;;5019047;28;20417;-76
2022/08/12 14:42:43;;;;;;;5.32;1.90;;;;;;;;;;5022705;28;20666;-75
2022/08/12 14:45:09;;;;;;;3.83;2.17;;;;;;;;;;5023021;28;20056;-74
2022/08/12 14:47:44;;;;;;;5.47;2.17;;;;;;;;;;5020078;28;20055;-75
2022/08/12 14:50:09;;;;;;;5.18;1.80;;;;;;;;;;5021484;28;20113;-75
2022/08/12 14:52:42;;;;;;;5.70;2.22;;;;;;;;;;5023723;28;20041;-77
2022/08/12 14:55:08;;;;;;;3.08;1.60;;;;;;;;;;5026064;28;20891;-77
2022/08/12 14:57:48;;;;;;;3.55;1.75;;;;;;;;;;5022637;28;20043;-77
2022/08/12 15:02:57;;;;;;;5.75;1.80;;;;;;;;;;5021491;28;20685;-76
2022/08/12 15:05:22;;;;;;;7.10;1.70;;;;;;;;;;5025125;28;20025;-77
2022/08/12 15:07:48;;;;;;;6.75;1.75;;;;;;;;;;5023877;28;20122;-79
2022/08/12 15:10:14;;;;;;;5.68;1.70;;;;;;;;;;5015357;28;20085;-77
2022/08/12 15:12:39;;;;;;;5.20;1.63;;;;;;;;;;5017384;28;20804;-77
2022/08/12 15:15:07;;;;;;;3.83;1.55;;;;;;;;;;5032125;28;20124;-81
2022/08/12 15:17:35;;;;;;;6.38;1.60;;;;;;;;;;5023418;28;20509;-75
2022/08/12 15:20:03;;;;;;;5.28;1.80;;;;;;;;;;5024221;28;20051;-79
2022/08/12 15:22:28;;;;;;;5.75;1.85;;;;;;;;;;5039620;28;20670;-79
2022/08/12 15:24:53;;;;;;;5.70;1.70;;;;;;;;;;5023405;28;20194;-76
2022/08/12 15:27:19;;;;;;;4.63;1.50;;;;;;;;;;5024535;28;20441;-75
2022/08/12 15:29:44;;;;;;;6.28;1.90;;;;;;;;;;5023732;28;20255;-76
2022/08/12 15:32:11;;;;;;;5.40;2.00;;;;;;;;;;5037376;28;20347;-81
2022/08/12 15:34:37;;;;;;;2.72;1.60;;;;;;;;;;5025506;28;20190;-75
2022/08/12 15:37:03;;;;;;;7.30;1.85;;;;;;;;;;5023015;28;20041;-77
2022/08/12 15:39:28;;;;;;;2.78;1.65;;;;;;;;;;5024560;28;20305;-78
2022/08/12 15:41:53;;;;;;;3.63;1.58;;;;;;;;;;5021714;28;20032;-78
2022/08/12 15:44:19;;;;;;;4.40;1.55;;;;;;;;;;5022385;28;20485;-77
2022/08/12 15:46:44;;;;;;;5.55;1.80;;;;;;;;;;5021918;28;20345;-79
2022/08/12 15:49:11;;;;;;;6.47;1.77;;;;;;;;;;5021515;28;20424;-77
2022/08/12 15:51:37;;;;;;;3.67;1.75;;;;;;;;;;5022826;28;20033;-77
2022/08/12 15:54:06;;;;;;;5.28;1.60;;;;;;;;;;5022685;28;20045;-77
2022/08/12 15:56:32;;;;;;;3.78;1.60;;;;;;;;;;5035688;28;20036;-77
2022/08/12 15:58:57;;;;;;;3.30;1.70;;;;;;;;;;5022389;28;20055;-77
2022/08/12 16:01:23;;;;;;;5.50;1.65;;;;;;;;;;5022219;28;20314;-76
2022/08/12 16:03:50;;;;;;;1.80;1.40;;;;;;;;;;5020817;28;20320;-76
2022/08/12 16:06:16;;;;;;;3.33;1.70;;;;;;;;;;5023680;28;20638;-78
2022/08/12 16:08:44;;;;;;;6.38;1.70;;;;;;;;;;5021519;28;20070;-82
2022/08/12 16:11:12;;;;;;;4.55;1.63;;;;;;;;;;5022050;28;20663;-76
2022/08/12 16:13:38;;;;;;;8.90;2.10;;;;;;;;;;5037172;28;20029;-77
2022/08/12 16:16:04;;;;;;;3.80;1.60;;;;;;;;;;5021479;28;20718;-75
2022/08/12 16:18:32;;;;;;;5.32;1.90;;;;;;;;;;5023301;28;20561;-77
2022/08/12 16:20:57;;;;;;;7.20;2.15;;;;;;;;;;5037460;28;20047;-77
2022/08/12 16:23:22;;;;;;;3.72;1.80;;;;;;;;;;5020892;28;20565;-76
2022/08/12 16:25:48;;;;;;;5.90;1.95;;;;;;;;;;5036978;28;20387;-77